sensor_id;sensor_type;location;lat;lon;timestamp;P1;durP1;ratioP1;P2;durP2;ratioP2
58123;SDS011;46725;48.068;20.832;2022-10-31T00:00:50;51.72;;;22.65;;
58123;SDS011;46725;48.068;20.832;2022-10-31T00:03:17;44.80;;;19.95;;
58123;SDS011;46725;48.068;20.832;2022-10-31T00:05:43;47.50;;;18.90;;
58123;SDS011;46725;48.068;20.832;2022-10-31T00:08:09;39.55;;;19.30;;
58123;SDS011;46725;48.068;20.832;2022-10-31T00:10:39;46.00;;;19.80;;
58123;SDS011;46725;48.068;20.832;2022-10-31T00:13:05;43.50;;;20.05;;
58123;SDS011;46725;48.068;20.832;2022-10-31T00:15:35;45.13;;;19.63;;
58123;SDS011;46725;48.068;20.832;2022-10-31T00:18:02;37.05;;;17.67;;
58123;SDS011;46725;48.068;20.832;2022-10-31T00:20:28;36.15;;;18.77;;
58123;SDS011;46725;48.068;20.832;2022-10-31T00:22:58;37.65;;;18.30;;
58123;SDS011;46725;48.068;20.832;2022-10-31T00:25:24;38.67;;;18.25;;
58123;SDS011;46725;48.068;20.832;2022-10-31T00:27:50;38.30;;;19.23;;
58123;SDS011;46725;48.068;20.832;2022-10-31T00:30:16;43.65;;;19.02;;
58123;SDS011;46725;48.068;20.832;2022-10-31T00:32:42;49.35;;;19.30;;
58123;SDS011;46725;48.068;20.832;2022-10-31T00:35:08;46.50;;;20.77;;
58123;SDS011;46725;48.068;20.832;2022-10-31T00:37:34;46.78;;;20.45;;
58123;SDS011;46725;48.068;20.832;2022-10-31T00:40:01;43.53;;;20.02;;
58123;SDS011;46725;48.068;20.832;2022-10-31T00:42:27;41.28;;;18.40;;
58123;SDS011;46725;48.068;20.832;2022-10-31T00:44:53;42.45;;;18.58;;
58123;SDS011;46725;48.068;20.832;2022-10-31T00:47:19;44.47;;;18.88;;
58123;SDS011;46725;48.068;20.832;2022-10-31T00:49:45;45.45;;;19.05;;
58123;SDS011;46725;48.068;20.832;2022-10-31T00:52:11;45.75;;;18.55;;
58123;SDS011;46725;48.068;20.832;2022-10-31T00:54:37;38.20;;;18.88;;
58123;SDS011;46725;48.068;20.832;2022-10-31T00:57:03;44.45;;;19.05;;
58123;SDS011;46725;48.068;20.832;2022-10-31T00:59:29;41.63;;;18.83;;
58123;SDS011;46725;48.068;20.832;2022-10-31T01:01:55;43.58;;;19.35;;
58123;SDS011;46725;48.068;20.832;2022-10-31T01:04:21;44.50;;;19.42;;
58123;SDS011;46725;48.068;20.832;2022-10-31T01:06:47;40.75;;;18.77;;
58123;SDS011;46725;48.068;20.832;2022-10-31T01:09:13;36.15;;;17.42;;
58123;SDS011;46725;48.068;20.832;2022-10-31T01:11:39;34.40;;;16.30;;
58123;SDS011;46725;48.068;20.832;2022-10-31T01:14:05;41.33;;;17.98;;
58123;SDS011;46725;48.068;20.832;2022-10-31T01:16:31;48.15;;;18.42;;
58123;SDS011;46725;48.068;20.832;2022-10-31T01:18:57;39.80;;;17.42;;
58123;SDS011;46725;48.068;20.832;2022-10-31T01:21:24;34.17;;;15.38;;
58123;SDS011;46725;48.068;20.832;2022-10-31T01:23:51;35.38;;;16.63;;
58123;SDS011;46725;48.068;20.832;2022-10-31T01:26:19;36.30;;;16.92;;
58123;SDS011;46725;48.068;20.832;2022-10-31T01:28:50;32.67;;;14.30;;
58123;SDS011;46725;48.068;20.832;2022-10-31T01:31:17;36.05;;;14.68;;
58123;SDS011;46725;48.068;20.832;2022-10-31T01:33:43;34.83;;;16.10;;
58123;SDS011;46725;48.068;20.832;2022-10-31T01:36:29;33.75;;;14.80;;
58123;SDS011;46725;48.068;20.832;2022-10-31T01:38:56;37.95;;;16.17;;
58123;SDS011;46725;48.068;20.832;2022-10-31T01:41:24;35.80;;;16.33;;
58123;SDS011;46725;48.068;20.832;2022-10-31T01:43:51;31.00;;;14.32;;
58123;SDS011;46725;48.068;20.832;2022-10-31T01:46:29;33.95;;;16.50;;
58123;SDS011;46725;48.068;20.832;2022-10-31T01:48:57;31.05;;;14.82;;
58123;SDS011;46725;48.068;20.832;2022-10-31T01:51:26;31.10;;;15.77;;
58123;SDS011;46725;48.068;20.832;2022-10-31T01:53:55;28.05;;;13.90;;
58123;SDS011;46725;48.068;20.832;2022-10-31T01:56:22;33.58;;;15.27;;
58123;SDS011;46725;48.068;20.832;2022-10-31T01:58:48;39.75;;;15.02;;
58123;SDS011;46725;48.068;20.832;2022-10-31T02:01:14;33.03;;;14.75;;
58123;SDS011;46725;48.068;20.832;2022-10-31T02:03:42;34.72;;;14.88;;
58123;SDS011;46725;48.068;20.832;2022-10-31T02:06:10;31.13;;;14.30;;
58123;SDS011;46725;48.068;20.832;2022-10-31T02:08:38;33.65;;;16.15;;
58123;SDS011;46725;48.068;20.832;2022-10-31T02:11:04;34.53;;;15.00;;
58123;SDS011;46725;48.068;20.832;2022-10-31T02:13:31;32.50;;;15.50;;
58123;SDS011;46725;48.068;20.832;2022-10-31T02:15:57;31.95;;;14.73;;
58123;SDS011;46725;48.068;20.832;2022-10-31T02:18:24;38.60;;;15.85;;
58123;SDS011;46725;48.068;20.832;2022-10-31T02:31:03;37.08;;;17.20;;
58123;SDS011;46725;48.068;20.832;2022-10-31T02:36:10;44.50;;;22.30;;
58123;SDS011;46725;48.068;20.832;2022-10-31T02:48:55;32.67;;;15.85;;
58123;SDS011;46725;48.068;20.832;2022-10-31T02:51:23;32.72;;;16.35;;
58123;SDS011;46725;48.068;20.832;2022-10-31T02:53:49;35.28;;;17.15;;
58123;SDS011;46725;48.068;20.832;2022-10-31T02:56:16;36.72;;;16.88;;
58123;SDS011;46725;48.068;20.832;2022-10-31T02:58:49;33.03;;;15.73;;
58123;SDS011;46725;48.068;20.832;2022-10-31T03:03:53;38.30;;;16.08;;
58123;SDS011;46725;48.068;20.832;2022-10-31T03:09:20;34.72;;;16.95;;
58123;SDS011;46725;48.068;20.832;2022-10-31T03:11:50;32.22;;;15.20;;
58123;SDS011;46725;48.068;20.832;2022-10-31T03:14:19;36.28;;;15.63;;
58123;SDS011;46725;48.068;20.832;2022-10-31T03:16:48;37.55;;;17.25;;
58123;SDS011;46725;48.068;20.832;2022-10-31T03:19:26;42.55;;;17.30;;
58123;SDS011;46725;48.068;20.832;2022-10-31T03:21:55;40.67;;;17.58;;
58123;SDS011;46725;48.068;20.832;2022-10-31T03:24:24;40.75;;;18.23;;
58123;SDS011;46725;48.068;20.832;2022-10-31T03:26:53;41.50;;;17.45;;
58123;SDS011;46725;48.068;20.832;2022-10-31T03:29:21;37.95;;;17.30;;
58123;SDS011;46725;48.068;20.832;2022-10-31T03:31:53;43.78;;;18.45;;
58123;SDS011;46725;48.068;20.832;2022-10-31T03:34:21;43.58;;;18.27;;
58123;SDS011;46725;48.068;20.832;2022-10-31T03:36:48;35.28;;;16.90;;
58123;SDS011;46725;48.068;20.832;2022-10-31T03:39:15;34.35;;;16.05;;
58123;SDS011;46725;48.068;20.832;2022-10-31T03:41:45;32.33;;;14.80;;
58123;SDS011;46725;48.068;20.832;2022-10-31T03:44:13;36.80;;;16.98;;
58123;SDS011;46725;48.068;20.832;2022-10-31T03:46:40;40.45;;;16.02;;
58123;SDS011;46725;48.068;20.832;2022-10-31T03:49:07;34.75;;;15.95;;
58123;SDS011;46725;48.068;20.832;2022-10-31T03:51:39;33.05;;;15.73;;
58123;SDS011;46725;48.068;20.832;2022-10-31T03:54:17;28.95;;;15.15;;
58123;SDS011;46725;48.068;20.832;2022-10-31T03:56:49;31.33;;;14.10;;
58123;SDS011;46725;48.068;20.832;2022-10-31T03:59:17;30.70;;;14.35;;
58123;SDS011;46725;48.068;20.832;2022-10-31T04:01:47;32.58;;;14.77;;
58123;SDS011;46725;48.068;20.832;2022-10-31T04:04:14;29.48;;;15.13;;
58123;SDS011;46725;48.068;20.832;2022-10-31T04:06:41;27.85;;;13.45;;
58123;SDS011;46725;48.068;20.832;2022-10-31T04:09:08;31.92;;;14.68;;
58123;SDS011;46725;48.068;20.832;2022-10-31T04:11:36;30.63;;;13.85;;
58123;SDS011;46725;48.068;20.832;2022-10-31T04:14:03;34.33;;;15.07;;
58123;SDS011;46725;48.068;20.832;2022-10-31T04:16:30;26.38;;;13.23;;
58123;SDS011;46725;48.068;20.832;2022-10-31T04:18:56;25.77;;;13.50;;
58123;SDS011;46725;48.068;20.832;2022-10-31T04:21:29;31.33;;;14.85;;
58123;SDS011;46725;48.068;20.832;2022-10-31T04:23:55;26.88;;;13.70;;
58123;SDS011;46725;48.068;20.832;2022-10-31T04:26:21;32.13;;;14.10;;
58123;SDS011;46725;48.068;20.832;2022-10-31T04:28:48;27.95;;;13.77;;
58123;SDS011;46725;48.068;20.832;2022-10-31T04:31:14;26.33;;;13.73;;
58123;SDS011;46725;48.068;20.832;2022-10-31T04:33:40;30.95;;;13.65;;
58123;SDS011;46725;48.068;20.832;2022-10-31T04:36:06;31.70;;;13.77;;
58123;SDS011;46725;48.068;20.832;2022-10-31T04:38:32;28.50;;;14.32;;
58123;SDS011;46725;48.068;20.832;2022-10-31T04:40:59;29.88;;;14.00;;
58123;SDS011;46725;48.068;20.832;2022-10-31T04:43:25;25.77;;;13.18;;
58123;SDS011;46725;48.068;20.832;2022-10-31T04:45:51;28.20;;;13.20;;
58123;SDS011;46725;48.068;20.832;2022-10-31T04:48:17;28.13;;;13.73;;
58123;SDS011;46725;48.068;20.832;2022-10-31T04:50:43;29.23;;;14.40;;
58123;SDS011;46725;48.068;20.832;2022-10-31T04:53:09;29.98;;;13.63;;
58123;SDS011;46725;48.068;20.832;2022-10-31T04:55:35;28.42;;;14.35;;
58123;SDS011;46725;48.068;20.832;2022-10-31T04:58:01;28.83;;;13.55;;
58123;SDS011;46725;48.068;20.832;2022-10-31T05:00:27;28.27;;;13.50;;
58123;SDS011;46725;48.068;20.832;2022-10-31T05:02:54;26.10;;;13.38;;
58123;SDS011;46725;48.068;20.832;2022-10-31T05:05:22;23.95;;;12.80;;
58123;SDS011;46725;48.068;20.832;2022-10-31T05:07:49;24.55;;;12.25;;
58123;SDS011;46725;48.068;20.832;2022-10-31T05:10:16;25.60;;;11.18;;
58123;SDS011;46725;48.068;20.832;2022-10-31T05:12:53;21.85;;;11.63;;
58123;SDS011;46725;48.068;20.832;2022-10-31T05:15:20;19.40;;;10.63;;
58123;SDS011;46725;48.068;20.832;2022-10-31T05:17:47;19.67;;;11.00;;
58123;SDS011;46725;48.068;20.832;2022-10-31T05:20:14;21.45;;;11.23;;
58123;SDS011;46725;48.068;20.832;2022-10-31T05:22:46;24.25;;;12.82;;
58123;SDS011;46725;48.068;20.832;2022-10-31T05:25:14;24.42;;;12.82;;
58123;SDS011;46725;48.068;20.832;2022-10-31T05:27:41;23.77;;;12.30;;
58123;SDS011;46725;48.068;20.832;2022-10-31T05:30:08;26.90;;;12.05;;
58123;SDS011;46725;48.068;20.832;2022-10-31T05:32:41;19.95;;;11.48;;
58123;SDS011;46725;48.068;20.832;2022-10-31T05:35:08;23.27;;;12.70;;
58123;SDS011;46725;48.068;20.832;2022-10-31T05:37:37;25.02;;;13.20;;
58123;SDS011;46725;48.068;20.832;2022-10-31T05:40:04;27.17;;;14.45;;
58123;SDS011;46725;48.068;20.832;2022-10-31T05:42:30;25.52;;;13.77;;
58123;SDS011;46725;48.068;20.832;2022-10-31T05:44:56;24.33;;;13.80;;
58123;SDS011;46725;48.068;20.832;2022-10-31T05:47:23;40.50;;;17.65;;
58123;SDS011;46725;48.068;20.832;2022-10-31T05:49:49;45.15;;;20.40;;
58123;SDS011;46725;48.068;20.832;2022-10-31T05:52:15;36.63;;;17.30;;
58123;SDS011;46725;48.068;20.832;2022-10-31T05:54:41;70.07;;;36.83;;
58123;SDS011;46725;48.068;20.832;2022-10-31T05:57:07;54.17;;;27.38;;
58123;SDS011;46725;48.068;20.832;2022-10-31T05:59:33;31.75;;;17.52;;
58123;SDS011;46725;48.068;20.832;2022-10-31T06:01:59;26.38;;;14.00;;
58123;SDS011;46725;48.068;20.832;2022-10-31T06:04:25;26.65;;;12.23;;
58123;SDS011;46725;48.068;20.832;2022-10-31T06:06:51;26.27;;;12.85;;
58123;SDS011;46725;48.068;20.832;2022-10-31T06:09:17;23.95;;;12.52;;
58123;SDS011;46725;48.068;20.832;2022-10-31T06:11:43;22.90;;;12.48;;
58123;SDS011;46725;48.068;20.832;2022-10-31T06:14:09;26.67;;;12.90;;
58123;SDS011;46725;48.068;20.832;2022-10-31T06:16:35;26.08;;;12.73;;
58123;SDS011;46725;48.068;20.832;2022-10-31T06:19:01;30.65;;;12.75;;
58123;SDS011;46725;48.068;20.832;2022-10-31T06:21:27;23.98;;;12.00;;
58123;SDS011;46725;48.068;20.832;2022-10-31T06:23:54;25.25;;;12.60;;
58123;SDS011;46725;48.068;20.832;2022-10-31T06:26:20;24.15;;;11.45;;
58123;SDS011;46725;48.068;20.832;2022-10-31T06:28:46;24.10;;;12.15;;
58123;SDS011;46725;48.068;20.832;2022-10-31T06:31:12;19.25;;;11.60;;
58123;SDS011;46725;48.068;20.832;2022-10-31T06:33:38;24.85;;;12.18;;
58123;SDS011;46725;48.068;20.832;2022-10-31T06:36:06;22.73;;;12.02;;
58123;SDS011;46725;48.068;20.832;2022-10-31T06:38:32;23.02;;;11.32;;
58123;SDS011;46725;48.068;20.832;2022-10-31T06:41:01;22.20;;;12.25;;
58123;SDS011;46725;48.068;20.832;2022-10-31T06:43:28;25.92;;;12.02;;
58123;SDS011;46725;48.068;20.832;2022-10-31T06:45:54;22.98;;;11.52;;
58123;SDS011;46725;48.068;20.832;2022-10-31T06:48:20;21.23;;;10.35;;
58123;SDS011;46725;48.068;20.832;2022-10-31T06:50:46;17.90;;;9.73;;
58123;SDS011;46725;48.068;20.832;2022-10-31T06:53:12;19.92;;;10.57;;
58123;SDS011;46725;48.068;20.832;2022-10-31T06:55:39;17.05;;;9.82;;
58123;SDS011;46725;48.068;20.832;2022-10-31T06:58:05;18.42;;;9.80;;
58123;SDS011;46725;48.068;20.832;2022-10-31T07:00:32;17.98;;;9.70;;
58123;SDS011;46725;48.068;20.832;2022-10-31T07:02:59;18.00;;;10.38;;
58123;SDS011;46725;48.068;20.832;2022-10-31T07:05:26;21.42;;;9.93;;
58123;SDS011;46725;48.068;20.832;2022-10-31T07:07:53;21.38;;;10.57;;
58123;SDS011;46725;48.068;20.832;2022-10-31T07:10:19;19.42;;;9.82;;
58123;SDS011;46725;48.068;20.832;2022-10-31T07:12:45;20.40;;;10.00;;
58123;SDS011;46725;48.068;20.832;2022-10-31T07:15:11;16.60;;;9.10;;
58123;SDS011;46725;48.068;20.832;2022-10-31T07:17:37;16.95;;;9.63;;
58123;SDS011;46725;48.068;20.832;2022-10-31T07:20:04;19.67;;;9.90;;
58123;SDS011;46725;48.068;20.832;2022-10-31T07:22:34;16.73;;;9.75;;
58123;SDS011;46725;48.068;20.832;2022-10-31T07:25:00;15.43;;;9.35;;
58123;SDS011;46725;48.068;20.832;2022-10-31T07:27:26;17.20;;;9.18;;
58123;SDS011;46725;48.068;20.832;2022-10-31T07:29:52;20.35;;;9.57;;
58123;SDS011;46725;48.068;20.832;2022-10-31T07:32:18;17.00;;;9.10;;
58123;SDS011;46725;48.068;20.832;2022-10-31T07:34:44;18.02;;;9.95;;
58123;SDS011;46725;48.068;20.832;2022-10-31T07:37:10;15.40;;;9.65;;
58123;SDS011;46725;48.068;20.832;2022-10-31T07:39:36;16.83;;;9.70;;
58123;SDS011;46725;48.068;20.832;2022-10-31T07:42:02;16.27;;;9.23;;
58123;SDS011;46725;48.068;20.832;2022-10-31T07:44:28;17.00;;;9.30;;
58123;SDS011;46725;48.068;20.832;2022-10-31T07:46:54;16.13;;;9.57;;
58123;SDS011;46725;48.068;20.832;2022-10-31T07:49:20;21.85;;;11.07;;
58123;SDS011;46725;48.068;20.832;2022-10-31T07:51:46;26.83;;;12.48;;
58123;SDS011;46725;48.068;20.832;2022-10-31T07:54:12;27.23;;;12.95;;
58123;SDS011;46725;48.068;20.832;2022-10-31T07:56:38;24.27;;;13.35;;
58123;SDS011;46725;48.068;20.832;2022-10-31T07:59:04;22.98;;;11.85;;
58123;SDS011;46725;48.068;20.832;2022-10-31T08:01:30;15.48;;;8.75;;
58123;SDS011;46725;48.068;20.832;2022-10-31T08:03:56;17.55;;;9.15;;
58123;SDS011;46725;48.068;20.832;2022-10-31T08:06:22;18.30;;;8.98;;
58123;SDS011;46725;48.068;20.832;2022-10-31T08:08:48;16.67;;;8.23;;
58123;SDS011;46725;48.068;20.832;2022-10-31T08:11:14;16.45;;;8.63;;
58123;SDS011;46725;48.068;20.832;2022-10-31T08:13:40;14.35;;;8.15;;
58123;SDS011;46725;48.068;20.832;2022-10-31T08:16:07;15.18;;;8.23;;
58123;SDS011;46725;48.068;20.832;2022-10-31T08:18:33;16.85;;;9.00;;
58123;SDS011;46725;48.068;20.832;2022-10-31T08:21:02;16.65;;;8.57;;
58123;SDS011;46725;48.068;20.832;2022-10-31T08:23:28;17.55;;;8.90;;
58123;SDS011;46725;48.068;20.832;2022-10-31T08:25:54;18.25;;;9.48;;
58123;SDS011;46725;48.068;20.832;2022-10-31T08:28:20;20.00;;;10.75;;
58123;SDS011;46725;48.068;20.832;2022-10-31T08:30:46;16.58;;;9.18;;
58123;SDS011;46725;48.068;20.832;2022-10-31T08:33:16;14.30;;;8.27;;
58123;SDS011;46725;48.068;20.832;2022-10-31T08:35:42;20.92;;;9.38;;
58123;SDS011;46725;48.068;20.832;2022-10-31T08:38:09;22.60;;;11.32;;
58123;SDS011;46725;48.068;20.832;2022-10-31T08:40:36;22.02;;;10.82;;
58123;SDS011;46725;48.068;20.832;2022-10-31T08:45:28;20.77;;;11.15;;
58123;SDS011;46725;48.068;20.832;2022-10-31T08:48:02;17.92;;;9.13;;
58123;SDS011;46725;48.068;20.832;2022-10-31T08:50:28;15.98;;;7.85;;
58123;SDS011;46725;48.068;20.832;2022-10-31T08:53:06;13.63;;;7.15;;
58123;SDS011;46725;48.068;20.832;2022-10-31T08:55:36;12.80;;;6.45;;
58123;SDS011;46725;48.068;20.832;2022-10-31T08:58:06;12.95;;;7.13;;
58123;SDS011;46725;48.068;20.832;2022-10-31T09:00:33;15.60;;;8.27;;
58123;SDS011;46725;48.068;20.832;2022-10-31T09:03:03;17.63;;;8.50;;
58123;SDS011;46725;48.068;20.832;2022-10-31T09:05:29;11.98;;;6.18;;
58123;SDS011;46725;48.068;20.832;2022-10-31T09:07:58;13.80;;;6.97;;
58123;SDS011;46725;48.068;20.832;2022-10-31T09:10:25;12.23;;;6.60;;
58123;SDS011;46725;48.068;20.832;2022-10-31T09:12:58;13.73;;;6.60;;
58123;SDS011;46725;48.068;20.832;2022-10-31T09:15:24;11.98;;;6.57;;
58123;SDS011;46725;48.068;20.832;2022-10-31T09:17:51;16.65;;;8.32;;
58123;SDS011;46725;48.068;20.832;2022-10-31T09:20:17;18.67;;;9.27;;
58123;SDS011;46725;48.068;20.832;2022-10-31T09:22:43;20.67;;;10.48;;
58123;SDS011;46725;48.068;20.832;2022-10-31T09:25:09;19.60;;;11.48;;
58123;SDS011;46725;48.068;20.832;2022-10-31T09:27:35;20.10;;;11.38;;
58123;SDS011;46725;48.068;20.832;2022-10-31T09:30:01;23.67;;;12.88;;
58123;SDS011;46725;48.068;20.832;2022-10-31T09:32:27;50.63;;;25.50;;
58123;SDS011;46725;48.068;20.832;2022-10-31T09:34:53;51.63;;;27.60;;
58123;SDS011;46725;48.068;20.832;2022-10-31T09:37:19;28.83;;;13.48;;
58123;SDS011;46725;48.068;20.832;2022-10-31T09:39:45;20.77;;;11.05;;
58123;SDS011;46725;48.068;20.832;2022-10-31T09:52:28;23.85;;;11.27;;
58123;SDS011;46725;48.068;20.832;2022-10-31T09:54:59;20.63;;;11.60;;
58123;SDS011;46725;48.068;20.832;2022-10-31T09:57:35;22.35;;;11.75;;
58123;SDS011;46725;48.068;20.832;2022-10-31T10:00:05;19.83;;;10.43;;
58123;SDS011;46725;48.068;20.832;2022-10-31T10:02:39;22.10;;;11.00;;
58123;SDS011;46725;48.068;20.832;2022-10-31T10:05:11;22.40;;;11.80;;
58123;SDS011;46725;48.068;20.832;2022-10-31T10:07:48;21.42;;;12.35;;
58123;SDS011;46725;48.068;20.832;2022-10-31T10:12:45;20.95;;;11.10;;
58123;SDS011;46725;48.068;20.832;2022-10-31T10:17:55;17.77;;;10.27;;
58123;SDS011;46725;48.068;20.832;2022-10-31T10:20:35;32.50;;;16.90;;
58123;SDS011;46725;48.068;20.832;2022-10-31T10:23:27;41.33;;;21.80;;
58123;SDS011;46725;48.068;20.832;2022-10-31T10:26:02;26.10;;;13.98;;
58123;SDS011;46725;48.068;20.832;2022-10-31T10:28:30;25.02;;;13.30;;
58123;SDS011;46725;48.068;20.832;2022-10-31T10:31:16;21.10;;;11.15;;
58123;SDS011;46725;48.068;20.832;2022-10-31T10:33:54;20.23;;;11.00;;
58123;SDS011;46725;48.068;20.832;2022-10-31T10:36:25;23.95;;;11.23;;
58123;SDS011;46725;48.068;20.832;2022-10-31T10:38:53;23.60;;;13.10;;
58123;SDS011;46725;48.068;20.832;2022-10-31T10:41:22;27.33;;;13.90;;
58123;SDS011;46725;48.068;20.832;2022-10-31T10:43:49;24.38;;;12.52;;
58123;SDS011;46725;48.068;20.832;2022-10-31T10:59:28;24.95;;;13.82;;
58123;SDS011;46725;48.068;20.832;2022-10-31T11:01:55;25.40;;;13.27;;
58123;SDS011;46725;48.068;20.832;2022-10-31T11:04:24;20.92;;;12.00;;
58123;SDS011;46725;48.068;20.832;2022-10-31T11:07:07;20.30;;;12.20;;
58123;SDS011;46725;48.068;20.832;2022-10-31T11:09:34;21.48;;;12.38;;
58123;SDS011;46725;48.068;20.832;2022-10-31T11:12:05;22.65;;;13.15;;
58123;SDS011;46725;48.068;20.832;2022-10-31T11:14:33;25.80;;;14.05;;
58123;SDS011;46725;48.068;20.832;2022-10-31T11:17:17;28.17;;;14.98;;
58123;SDS011;46725;48.068;20.832;2022-10-31T11:19:45;29.88;;;15.88;;
58123;SDS011;46725;48.068;20.832;2022-10-31T11:22:16;24.45;;;14.10;;
58123;SDS011;46725;48.068;20.832;2022-10-31T11:24:43;29.33;;;15.07;;
58123;SDS011;46725;48.068;20.832;2022-10-31T11:27:16;28.33;;;15.25;;
58123;SDS011;46725;48.068;20.832;2022-10-31T11:29:42;31.20;;;15.65;;
58123;SDS011;46725;48.068;20.832;2022-10-31T11:32:15;30.23;;;16.65;;
58123;SDS011;46725;48.068;20.832;2022-10-31T11:34:42;32.03;;;17.15;;
58123;SDS011;46725;48.068;20.832;2022-10-31T11:37:21;22.95;;;12.93;;
58123;SDS011;46725;48.068;20.832;2022-10-31T11:39:50;29.20;;;15.00;;
58123;SDS011;46725;48.068;20.832;2022-10-31T11:42:19;23.73;;;14.75;;
58123;SDS011;46725;48.068;20.832;2022-10-31T11:44:46;30.08;;;14.27;;
58123;SDS011;46725;48.068;20.832;2022-10-31T11:47:13;26.17;;;13.88;;
58123;SDS011;46725;48.068;20.832;2022-10-31T11:49:41;28.85;;;14.45;;
58123;SDS011;46725;48.068;20.832;2022-10-31T11:52:27;25.30;;;14.80;;
58123;SDS011;46725;48.068;20.832;2022-10-31T11:57:45;28.33;;;15.27;;
58123;SDS011;46725;48.068;20.832;2022-10-31T12:00:22;27.55;;;15.23;;
58123;SDS011;46725;48.068;20.832;2022-10-31T12:02:49;28.80;;;15.52;;
58123;SDS011;46725;48.068;20.832;2022-10-31T12:05:24;36.28;;;16.55;;
58123;SDS011;46725;48.068;20.832;2022-10-31T12:07:58;32.38;;;14.70;;
58123;SDS011;46725;48.068;20.832;2022-10-31T12:10:27;35.17;;;16.70;;
58123;SDS011;46725;48.068;20.832;2022-10-31T12:13:18;33.92;;;16.50;;
58123;SDS011;46725;48.068;20.832;2022-10-31T12:15:54;25.17;;;14.13;;
58123;SDS011;46725;48.068;20.832;2022-10-31T12:31:40;32.40;;;18.33;;
58123;SDS011;46725;48.068;20.832;2022-10-31T12:57:54;40.08;;;20.45;;
58123;SDS011;46725;48.068;20.832;2022-10-31T13:00:22;39.38;;;20.27;;
58123;SDS011;46725;48.068;20.832;2022-10-31T13:02:50;44.10;;;21.58;;
58123;SDS011;46725;48.068;20.832;2022-10-31T13:05:23;45.70;;;22.30;;
58123;SDS011;46725;48.068;20.832;2022-10-31T13:10:35;50.22;;;25.38;;
58123;SDS011;46725;48.068;20.832;2022-10-31T13:13:06;53.25;;;25.25;;
58123;SDS011;46725;48.068;20.832;2022-10-31T13:15:34;51.67;;;24.48;;
58123;SDS011;46725;48.068;20.832;2022-10-31T13:18:06;46.38;;;24.63;;
58123;SDS011;46725;48.068;20.832;2022-10-31T13:20:43;50.25;;;23.63;;
58123;SDS011;46725;48.068;20.832;2022-10-31T13:25:39;48.53;;;23.95;;
58123;SDS011;46725;48.068;20.832;2022-10-31T13:28:23;52.67;;;23.50;;
58123;SDS011;46725;48.068;20.832;2022-10-31T13:30:51;53.80;;;25.58;;
58123;SDS011;46725;48.068;20.832;2022-10-31T13:33:19;58.15;;;25.67;;
58123;SDS011;46725;48.068;20.832;2022-10-31T13:38:23;59.90;;;27.92;;
58123;SDS011;46725;48.068;20.832;2022-10-31T13:40:55;57.58;;;28.77;;
58123;SDS011;46725;48.068;20.832;2022-10-31T13:45:53;59.15;;;26.63;;
58123;SDS011;46725;48.068;20.832;2022-10-31T13:48:29;60.55;;;27.67;;
58123;SDS011;46725;48.068;20.832;2022-10-31T13:50:59;55.25;;;24.65;;
58123;SDS011;46725;48.068;20.832;2022-10-31T13:53:40;65.88;;;27.30;;
58123;SDS011;46725;48.068;20.832;2022-10-31T13:58:33;54.50;;;24.02;;
58123;SDS011;46725;48.068;20.832;2022-10-31T14:03:29;47.47;;;22.38;;
58123;SDS011;46725;48.068;20.832;2022-10-31T14:05:56;52.85;;;24.85;;
58123;SDS011;46725;48.068;20.832;2022-10-31T14:08:22;56.95;;;24.25;;
58123;SDS011;46725;48.068;20.832;2022-10-31T14:10:50;61.67;;;27.00;;
58123;SDS011;46725;48.068;20.832;2022-10-31T14:13:36;61.28;;;25.98;;
58123;SDS011;46725;48.068;20.832;2022-10-31T14:16:07;59.10;;;25.90;;
58123;SDS011;46725;48.068;20.832;2022-10-31T14:18:43;59.25;;;27.23;;
58123;SDS011;46725;48.068;20.832;2022-10-31T14:23:52;60.67;;;27.05;;
58123;SDS011;46725;48.068;20.832;2022-10-31T14:26:20;61.63;;;28.98;;
58123;SDS011;46725;48.068;20.832;2022-10-31T14:28:48;63.92;;;31.33;;
58123;SDS011;46725;48.068;20.832;2022-10-31T14:31:30;78.97;;;37.88;;
58123;SDS011;46725;48.068;20.832;2022-10-31T14:33:58;64.55;;;31.58;;
58123;SDS011;46725;48.068;20.832;2022-10-31T14:36:28;68.93;;;31.95;;
58123;SDS011;46725;48.068;20.832;2022-10-31T14:39:20;62.40;;;29.13;;
58123;SDS011;46725;48.068;20.832;2022-10-31T14:46:48;76.05;;;34.95;;
58123;SDS011;46725;48.068;20.832;2022-10-31T14:51:48;70.65;;;36.05;;
58123;SDS011;46725;48.068;20.832;2022-10-31T14:54:20;68.68;;;32.63;;
58123;SDS011;46725;48.068;20.832;2022-10-31T14:56:49;86.80;;;37.88;;
58123;SDS011;46725;48.068;20.832;2022-10-31T14:59:18;57.45;;;27.58;;
58123;SDS011;46725;48.068;20.832;2022-10-31T15:01:53;60.80;;;26.83;;
58123;SDS011;46725;48.068;20.832;2022-10-31T15:04:21;65.32;;;27.58;;
58123;SDS011;46725;48.068;20.832;2022-10-31T15:06:50;60.28;;;28.45;;
58123;SDS011;46725;48.068;20.832;2022-10-31T15:09:27;62.90;;;27.98;;
58123;SDS011;46725;48.068;20.832;2022-10-31T15:11:53;60.33;;;26.75;;
58123;SDS011;46725;48.068;20.832;2022-10-31T15:14:23;63.22;;;27.10;;
58123;SDS011;46725;48.068;20.832;2022-10-31T15:16:50;59.10;;;25.38;;
58123;SDS011;46725;48.068;20.832;2022-10-31T15:19:20;55.58;;;24.38;;
58123;SDS011;46725;48.068;20.832;2022-10-31T15:21:49;59.30;;;24.88;;
58123;SDS011;46725;48.068;20.832;2022-10-31T15:24:16;52.13;;;23.65;;
58123;SDS011;46725;48.068;20.832;2022-10-31T15:26:47;52.20;;;23.73;;
58123;SDS011;46725;48.068;20.832;2022-10-31T15:29:16;45.83;;;21.45;;
58123;SDS011;46725;48.068;20.832;2022-10-31T15:31:49;50.15;;;22.67;;
58123;SDS011;46725;48.068;20.832;2022-10-31T15:34:18;54.20;;;24.05;;
58123;SDS011;46725;48.068;20.832;2022-10-31T15:36:47;53.30;;;23.80;;
58123;SDS011;46725;48.068;20.832;2022-10-31T15:39:15;51.28;;;21.95;;
58123;SDS011;46725;48.068;20.832;2022-10-31T15:42:43;52.65;;;25.25;;
58123;SDS011;46725;48.068;20.832;2022-10-31T15:44:39;58.42;;;24.80;;
58123;SDS011;46725;48.068;20.832;2022-10-31T15:47:15;57.10;;;25.55;;
58123;SDS011;46725;48.068;20.832;2022-10-31T15:49:47;52.35;;;23.45;;
58123;SDS011;46725;48.068;20.832;2022-10-31T15:54:43;55.88;;;24.58;;
58123;SDS011;46725;48.068;20.832;2022-10-31T15:57:10;57.97;;;25.85;;
58123;SDS011;46725;48.068;20.832;2022-10-31T15:59:37;62.28;;;24.52;;
58123;SDS011;46725;48.068;20.832;2022-10-31T16:02:09;62.08;;;25.70;;
58123;SDS011;46725;48.068;20.832;2022-10-31T16:04:36;59.70;;;24.92;;
58123;SDS011;46725;48.068;20.832;2022-10-31T16:07:23;57.72;;;25.98;;
58123;SDS011;46725;48.068;20.832;2022-10-31T16:09:59;59.08;;;25.38;;
58123;SDS011;46725;48.068;20.832;2022-10-31T16:12:29;58.45;;;25.25;;
58123;SDS011;46725;48.068;20.832;2022-10-31T16:14:56;59.05;;;25.40;;
58123;SDS011;46725;48.068;20.832;2022-10-31T16:17:22;59.22;;;26.20;;
58123;SDS011;46725;48.068;20.832;2022-10-31T16:19:56;55.92;;;25.02;;
58123;SDS011;46725;48.068;20.832;2022-10-31T16:22:25;60.10;;;24.75;;
58123;SDS011;46725;48.068;20.832;2022-10-31T16:27:21;61.60;;;28.05;;
58123;SDS011;46725;48.068;20.832;2022-10-31T16:29:50;62.13;;;27.55;;